Flight Track Log - Related Links

Times and Time Zones

All times are in EDT time to prevent confusion due to time zone crossing. See the N46CR flight status page for this flight to view local times or setup timezone preferences in your user account.

Time Position Orientation Groundspeed Altitude Reporting Facility
EDT Latitude Longitude Course Direction KTS MPH feet Rate Location/Type
Thu 01:47:52 PM 27.3833 -82.5500 127° Southeast 96 110 400  Level Tampa TRACON
Thu 01:49:41 PM 27.3500 -82.5000 138° Southeast 112 129 1,800 817 Climbing Tampa TRACON
Thu 01:50:41 PM 27.3333 -82.4833 156° South 115 132 2,700 864 Climbing Tampa TRACON
Thu 01:51:46 PM 27.3000 -82.4667 161° South 111 128 3,600 670 Climbing Tampa TRACON
Thu 01:53:49 PM 27.2283 -82.4386 149° Southeast 143 165 4,800 623 Climbing Miami Center
Thu 01:54:49 PM 27.1978 -82.4183 138° Southeast 138 159 5,500 750 Climbing Miami Center
Thu 01:55:49 PM 27.1736 -82.3939 131° Southeast 127 146 6,300 800 Climbing Miami Center
Thu 01:56:49 PM 27.1497 -82.3625 130° Southeast 127 146 7,100 800 Climbing Miami Center
Thu 01:57:49 PM 27.1261 -82.3311 135° Southeast 127 146 7,900 750 Climbing Miami Center
Thu 01:58:49 PM 27.1000 -82.3019 135° Southeast 127 146 8,600 750 Climbing Miami Center
Thu 01:59:49 PM 27.0758 -82.2750 135° Southeast 127 146 9,400 750 Climbing Miami Center
Thu 02:00:49 PM 27.0478 -82.2433 135° Southeast 127 146 10,100 650 Climbing Miami Center
Thu 02:01:49 PM 27.0219 -82.2142 122° Southeast 132 152 10,700 650 Climbing Miami Center
Thu 02:02:49 PM 27.0022 -82.1783 114° Southeast 132 152 11,400 650 Climbing Miami Center
Thu 02:03:49 PM 26.9850 -82.1358 115° Southeast 137 158 12,000 650 Climbing Miami Center
Thu 02:04:49 PM 26.9678 -82.0953 119° Southeast 147 169 12,700 600 Climbing Miami Center
Thu 02:05:49 PM 26.9464 -82.0525 119° Southeast 147 169 13,200 500 Climbing Miami Center
Thu 02:06:49 PM 26.9250 -82.0097 118° Southeast 153 176 13,700 550 Climbing Miami Center
Thu 02:07:49 PM 26.9036 -81.9644 117° Southeast 158 182 14,300 550 Climbing Miami Center
Thu 02:08:49 PM 26.8822 -81.9169 117° Southeast 164 189 14,800 550 Climbing Miami Center
Thu 02:09:49 PM 26.8608 -81.8694 117° Southeast 164 189 15,400 650 Climbing Miami Center
Thu 02:10:49 PM 26.8414 -81.8267 114° Southeast 164 189 16,100 650 Climbing Miami Center
Thu 02:11:49 PM 26.8242 -81.7842 116° Southeast 159 183 16,700 400 Climbing Miami Center
Thu 02:12:49 PM 26.8047 -81.7392 121° Southeast 159 183 16,900 100 Climbing Miami Center
Thu 02:13:49 PM 26.7792 -81.6914 118° Southeast 166 191 16,900  Level Miami Center
Thu 02:14:49 PM 26.7558 -81.6417 116° Southeast 178 205 16,900 250 Level Miami Center
Thu 02:15:49 PM 26.7325 -81.5872 117° Southeast 187 215 17,400 450 Climbing Miami Center
Thu 02:16:49 PM 26.7092 -81.5353 117° Southeast 181 208 17,800 550 Climbing Miami Center
Thu 02:17:49 PM 26.6917 -81.4972 116° Southeast 170 196 18,500 550 Climbing Miami Center
Thu 02:18:49 PM 26.6722 -81.4525 120° Southeast 164 189 18,900 250 Climbing Miami Center
Thu 02:19:49 PM 26.6467 -81.4025 117° Southeast 169 194 19,000 50 Climbing Miami Center
Thu 02:20:49 PM 26.6233 -81.3506 119° Southeast 180 207 19,000  Level Miami Center
Thu 02:21:49 PM 26.5978 -81.2986 115° Southeast 187 215 19,000  Level Miami Center
Thu 02:22:49 PM 26.5764 -81.2467 119° Southeast 192 221 19,000  Level Miami Center
Thu 02:23:49 PM 26.5506 -81.1947 119° Southeast 192 221 19,000  Level Miami Center
Thu 02:24:49 PM 26.5231 -81.1403 118° Southeast 192 221 19,000  Level Miami Center
Thu 02:25:49 PM 26.4994 -81.0906 119° Southeast 187 215 19,000  Level Miami Center
Thu 02:26:49 PM 26.4739 -81.0386 118° Southeast 187 215 19,000  Level Miami Center
Thu 02:27:49 PM 26.4522 -80.9939 117° Southeast 187 215 19,000  Level Miami Center
Thu 02:28:49 PM 26.4267 -80.9372 115° Southeast 187 215 19,000  Level Miami Center
Thu 02:29:49 PM 26.4069 -80.8903 121° Southeast 187 215 19,000 250 Level Miami Center
Thu 02:30:49 PM 26.3792 -80.8383 118° Southeast 187 215 19,500 500 Climbing Miami Center
Thu 02:31:49 PM 26.3575 -80.7936 119° Southeast 187 215 20,000 450 Climbing Miami Center
Thu 02:32:49 PM 26.3317 -80.7417 119° Southeast 187 215 20,400 350 Climbing Miami Center
Thu 02:33:49 PM 26.3097 -80.6969 117° Southeast 187 215 20,700 300 Climbing Miami Center
Thu 02:34:49 PM 26.2842 -80.6406 116° Southeast 187 215 21,000 150 Climbing Miami Center
Thu 02:35:49 PM 26.2606 -80.5864 120° Southeast 187 215 21,000  Level Miami Center
Thu 02:36:49 PM 26.2306 -80.5278 118° Southeast 194 223 21,000  Level Miami Center
Thu 02:37:49 PM 26.2028 -80.4689 119° Southeast 201 231 21,000  Level Miami Center
Thu 02:38:49 PM 26.1750 -80.4125 119° Southeast 206 237 21,000  Level Miami Center
Thu 02:39:49 PM 26.1472 -80.3561 115° Southeast 206 237 21,000  Level Miami Center
Thu 02:40:49 PM 26.1233 -80.3000 118° Southeast 206 237 21,000  Level Miami Center
Thu 02:41:49 PM 26.0975 -80.2461 118° Southeast 206 237 21,000  Level Miami Center
Thu 02:42:49 PM 26.0717 -80.1922 119° Southeast 206 237 21,000  Level Miami Center
Thu 02:43:49 PM 26.0436 -80.1358 118° Southeast 206 237 21,000  Level Miami Center
Thu 02:44:49 PM 26.0178 -80.0819 117° Southeast 206 237 21,000  Level Miami Center
Thu 02:45:49 PM 25.9917 -80.0258 116° Southeast 206 237 21,000  Level Miami Center
Thu 02:46:49 PM 25.9658 -79.9672 119° Southeast 206 237 21,000  Level Miami Center
Thu 02:47:49 PM 25.9378 -79.9111 119° Southeast 206 237 21,000  Level Miami Center
Thu 02:48:49 PM 25.9097 -79.8550 118° Southeast 206 237 21,000  Level Miami Center
Thu 02:49:49 PM 25.8817 -79.7967 117° Southeast 206 237 21,000  Level Miami Center
Thu 02:50:49 PM 25.8556 -79.7406 120° Southeast 206 237 21,000  Level Miami Center
Thu 02:51:49 PM 25.8253 -79.6819 118° Southeast 206 237 21,000  Level Miami Center
Thu 02:52:49 PM 25.7992 -79.6283 118° Southeast 206 237 21,000  Level Miami Center
Thu 02:53:49 PM 25.7750 -79.5769 118° Southeast 206 237 21,000  Level Miami Center
Thu 02:54:49 PM 25.7450 -79.5142 118° Southeast 206 237 21,000  Level Miami Center
Thu 02:55:49 PM 25.7208 -79.4628 117° Southeast 206 237 21,000  Level Miami Center
Thu 02:56:49 PM 25.6947 -79.4069 118° Southeast 206 237 21,000  Level Miami Center
Thu 02:57:49 PM 25.6664 -79.3486 121° Southeast 206 237 21,000  Level Miami Center
Thu 02:58:49 PM 25.6358 -79.2928 116° Southeast 206 237 21,000  Level Miami Center
Thu 02:59:49 PM 25.6097 -79.2347 119° Southeast 206 237 21,000  Level Miami Center
Thu 03:00:49 PM 25.5814 -79.1789 118° Southeast 206 237 21,000  Level Miami Center
Thu 03:01:49 PM 25.5531 -79.1208 118° Southeast 206 237 21,000  Level Miami Center
Thu 03:02:49 PM 25.5247 -79.0625 118° Southeast 206 237 21,000  Level Miami Center
Thu 03:03:49 PM 25.4983 -79.0069 128° Southeast 206 237 21,000  Level Miami Center
Thu 03:04:49 PM 25.4572 -78.9486 116° Southeast 206 237 21,000  Level Miami Center
Thu 03:05:49 PM 25.4311 -78.8906 117° Southeast 206 237 21,000  Level Miami Center
Thu 03:06:49 PM 25.4047 -78.8328 116° Southeast 212 244 21,000  Level Miami Center
Thu 03:07:49 PM 25.3783 -78.7725 118° Southeast 207 238 21,000  Level Miami Center
Thu 03:08:49 PM 25.3539 -78.7214 116° Southeast 207 238 21,000  Level Miami Center
Thu 03:09:49 PM 25.3275 -78.6614 123° Southeast 207 238 21,000  Level Miami Center
Thu 03:10:49 PM 25.2947 -78.6056 117° Southeast 207 238 21,000 50 Level Miami Center
Thu 03:11:49 PM 25.2681 -78.5478 121° Southeast 207 238 21,100 1,000 Climbing Miami Center
Thu 03:12:49 PM 25.2394 -78.4947 118° Southeast 207 238 23,000 550 Climbing Miami Center
Thu 03:13:49 PM 25.2131 -78.4392 121° Southeast 201 231 22,200 -200 Descending Miami Center
Thu 03:14:49 PM 25.1864 -78.3906 118° Southeast 201 231 22,600 350 Climbing Miami Center
Thu 03:15:49 PM 25.1597 -78.3350 118° Southeast 201 231 22,900 200 Climbing Miami Center
Thu 03:16:49 PM 25.1331 -78.2797 118° Southeast 201 231 23,000 50 Climbing Miami Center
Thu 03:17:49 PM 25.1044 -78.2197 120° Southeast 207 238 23,000  Level Miami Center
Thu 03:18:49 PM 25.0736 -78.1597 117° Southeast 212 244 23,000 -50 Level Miami Center
Thu 03:19:49 PM 25.0447 -78.0975 120° Southeast 219 252 22,900 -50 Descending Miami Center
Thu 03:20:49 PM 25.0139 -78.0375 121° Southeast 224 258 22,900  Level Miami Center
Thu 03:21:49 PM 24.9811 -77.9778 120° Southeast 224 258 22,900 50 Level Miami Center
Thu 03:22:49 PM 24.9481 -77.9156 119° Southeast 224 258 23,000  Climbing Miami Center
Thu 03:23:49 PM 24.9169 -77.8533 119° Southeast 230 265 22,900  Descending Miami Center
Thu 03:24:49 PM 24.8861 -77.7911 120° Southeast 230 265 23,000 50 Climbing Miami Center
Thu 03:25:49 PM 24.8531 -77.7292 117° Southeast 230 265 23,000  Level Miami Center
Thu 03:26:49 PM 24.8242 -77.6672 120° Southeast 230 265 23,000  Level Miami Center
Thu 03:27:49 PM 24.7911 -77.6050 119° Southeast 230 265 23,000  Level Miami Center
Thu 03:28:49 PM 24.7600 -77.5431 119° Southeast 230 265 23,000  Level Miami Center
Thu 03:29:49 PM 24.7289 -77.4811 119° Southeast 230 265 23,000  Level Miami Center
Thu 03:30:49 PM 24.6978 -77.4192 118° Southeast 230 265 23,000  Level Miami Center
Thu 03:31:49 PM 24.6686 -77.3597 119° Southeast 230 265 23,000  Level Miami Center
Thu 03:32:49 PM 24.6375 -77.2978 120° Southeast 230 265 23,000  Level Miami Center
Thu 03:33:49 PM 24.6064 -77.2383 116° Southeast 230 265 23,000  Level Miami Center
Thu 03:34:49 PM 24.5794 -77.1764 121° Southeast 230 265 23,000  Level Miami Center
Thu 03:35:49 PM 24.5461 -77.1147 118° Southeast 230 265 23,000  Level Miami Center
Thu 03:36:49 PM 24.5169 -77.0553 118° Southeast 230 265 23,000  Level Miami Center
Thu 03:37:49 PM 24.4878 -76.9958 120° Southeast 230 265 23,000 50 Level Miami Center
Thu 03:38:49 PM 24.4564 -76.9364 117° Southeast 230 265 23,100 100 Climbing Miami Center
Thu 03:39:49 PM 24.4292 -76.8772 121° Southeast 225 259 23,200  Climbing Miami Center
Thu 03:40:49 PM 24.3958 -76.8156 121° Southeast 225 259 23,100 -50 Descending Miami Center
Thu 03:41:49 PM 24.3664 -76.7608 117° Southeast 225 259 23,100 -50 Level Miami Center
Thu 03:42:49 PM 24.3372 -76.6992 120° Southeast 225 259 23,000  Descending Miami Center
Thu 03:43:49 PM 24.3058 -76.6400 119° Southeast 225 259 23,100 50 Climbing Miami Center
Thu 03:44:49 PM 24.2742 -76.5761 118° Southeast 225 259 23,100  Level Miami Center
Thu 03:45:49 PM 24.2450 -76.5169 118° Southeast 220 253 23,100  Level Miami Center
Thu 03:46:49 PM 24.2156 -76.4556 119° Southeast 220 253 23,100  Level Miami Center
Thu 03:47:49 PM 24.1839 -76.3942 120° Southeast 220 253 23,100  Level Miami Center
Thu 03:48:49 PM 24.1544 -76.3372 119° Southeast 220 253 23,100  Level Miami Center
Thu 03:49:49 PM 24.1228 -76.2736 119° Southeast 220 253 23,100  Level Miami Center
Thu 03:50:49 PM 24.0933 -76.2147 120° Southeast 220 253 23,100  Level Miami Center
Thu 03:51:49 PM 24.0617 -76.1556 117° Southeast 220 253 23,100  Level Miami Center
Thu 03:52:49 PM 24.0344 -76.0967 120° Southeast 220 253 23,100  Level Miami Center
Thu 03:53:49 PM 24.0025 -76.0356 119° Southeast 220 253 23,100  Level Miami Center
Thu 03:54:49 PM 23.9708 -75.9742 118° Southeast 220 253 23,100  Level Miami Center
Thu 03:55:49 PM 23.9414 -75.9131 120° Southeast 225 259 23,100  Level Miami Center
Thu 03:56:49 PM 23.9094 -75.8519 120° Southeast 225 259 23,100  Level Miami Center
Thu 03:57:49 PM 23.8778 -75.7908 118° Southeast 225 259 23,100  Level Miami Center
Thu 03:58:49 PM 23.8481 -75.7297 119° Southeast 225 259 23,100  Level Miami Center
Thu 03:59:49 PM 23.8161 -75.6664 120° Southeast 225 259 23,100  Level Miami Center
Thu 04:00:49 PM 23.7908 -75.6189 118° Southeast 225 259 23,100  Level Miami Center
Thu 04:01:49 PM 23.7567 -75.5489 120° Southeast 225 259 23,100  Level Miami Center
Thu 04:02:49 PM 23.7247 -75.4881 121° Southeast 225 259 23,100  Level Miami Center
Thu 04:03:49 PM 23.6931 -75.4294 119° Southeast 225 259 23,100  Level Miami Center
Thu 04:04:49 PM 23.6608 -75.3661 119° Southeast 225 259 23,100  Level Miami Center
Thu 04:05:49 PM 23.6311 -75.3075 118° Southeast 225 259 23,100  Level Miami Center
Thu 04:06:49 PM 23.6011 -75.2467 121° Southeast 225 259 23,100  Level Miami Center
Thu 04:07:49 PM 23.5692 -75.1883 117° Southeast 225 259 23,100  Level Miami Center
Thu 04:08:49 PM 23.5392 -75.1228 121° Southeast 225 259 23,100  Level Miami Center
Thu 04:09:49 PM 23.5072 -75.0644 121° Southeast 225 259 23,100  Level Miami Center
Thu 04:10:49 PM 23.4750 -75.0058 120° Southeast 225 259 23,100  Level Miami Center
Thu 04:11:49 PM 23.4431 -74.9453 117° Southeast 225 259 23,100  Level Miami Center
Thu 04:12:49 PM 23.4131 -74.8822 119° Southeast 225 259 23,100  Level Miami Center
Thu 04:13:49 PM 23.3828 -74.8217 122° Southeast 225 259 23,100  Level Miami Center
Thu 04:14:49 PM 23.3486 -74.7611 118° Southeast 225 259 23,100  Level Miami Center
Thu 04:15:49 PM 23.3186 -74.7006 122° Southeast 225 259 23,100  Level Miami Center
Thu 04:16:49 PM 23.2842 -74.6400 118° Southeast 231 266 23,100  Level Miami Center
Thu 04:17:49 PM 23.2561 -74.5817 118° Southeast 231 266 23,100  Level Miami Center
Thu 04:18:49 PM 23.2258 -74.5189 120° Southeast 231 266 23,100  Level Miami Center
Thu 04:19:49 PM 23.1936 -74.4586 120° Southeast 226 260 23,100  Level Miami Center
Thu 04:20:49 PM 23.1633 -74.4006 122° Southeast 226 260 23,100 -200 Level Miami Center
Thu 04:21:49 PM 23.1269 -74.3378 120° Southeast 226 260 22,700 -400 Descending Miami Center
Thu 04:22:49 PM 23.0925 -74.2731 121° Southeast 231 266 22,300 -400 Descending Miami Center
Thu 04:23:49 PM 23.0578 -74.2106 118° Southeast 238 274 21,900 -450 Descending Miami Center
Thu 04:24:49 PM 23.0253 -74.1436 120° Southeast 243 280 21,400 -450 Descending Miami Center
Thu 04:25:49 PM 22.9908 -74.0789 119° Southeast 248 285 21,000 -400 Descending Miami Center
Thu 04:26:49 PM 22.9581 -74.0142 120° Southeast 248 285 20,600 -450 Descending Miami Center
Thu 04:27:49 PM 22.9258 -73.9539 123° Southeast 248 285 20,100 -450 Descending Miami Center
Thu 04:28:49 PM 22.8869 -73.8894 119° Southeast 248 285 19,700 -400 Descending Miami Center
Thu 04:29:49 PM 22.8522 -73.8228 122° Southeast 248 285 19,300 -400 Descending Miami Center
Thu 04:30:49 PM 22.8175 -73.7625 118° Southeast 243 280 18,900 -450 Descending Miami Center
Thu 04:31:49 PM 22.7869 -73.7003 123° Southeast 243 280 18,400 -450 Descending Miami Center
Thu 04:32:49 PM 22.7522 -73.6425 118° Southeast 243 280 18,000 -400 Descending Miami Center
Thu 04:33:49 PM 22.7217 -73.5803 120° Southeast 237 273 17,600 -450 Descending Miami Center
Thu 04:34:49 PM 22.6892 -73.5203 114° Southeast 232 267 17,100 -450 Descending Miami Center
Thu 04:35:49 PM 22.6647 -73.4603 124° Southeast 227 261 16,700 -450 Descending Miami Center
Thu 04:36:49 PM 22.6278 -73.4006 120° Southeast 227 261 16,200 -550 Descending Miami Center
Thu 04:37:49 PM 22.5950 -73.3383 116° Southeast 227 261 15,600 -650 Descending Miami Center
Thu 04:38:49 PM 22.5664 -73.2761 125° Southeast 232 267 14,900 -700 Descending Miami Center
Thu 04:39:49 PM 22.5297 -73.2189 120° Southeast 232 267 14,200 -700 Descending Miami Center
Thu 04:40:49 PM 22.4969 -73.1567 121° Southeast 232 267 13,500 -750 Descending Miami Center
Thu 04:41:49 PM 22.4639 -73.0969 118° Southeast 232 267 12,700 -800 Descending Miami Center
Thu 04:42:49 PM 22.4333 -73.0350 117° Southeast 239 275 11,900 -800 Descending Miami Center
Thu 04:43:49 PM 22.4067 -72.9775 124° Southeast 234 269 11,100 -600 Descending Miami Center
Thu 04:44:49 PM 22.3653 -72.9114 127° Southeast 234 269 10,700 -750 Descending Miami Center
Thu 04:45:49 PM 22.3350 -72.8672 118° Southeast 234 269 9,600 -900 Descending Miami Center
Thu 04:46:49 PM 22.3083 -72.8119 119° Southeast 217 250 8,900 -750 Descending Miami Center
Thu 04:47:49 PM 22.2797 -72.7569 121° Southeast 212 244 8,100 -750 Descending Miami Center
Thu 04:48:49 PM 22.2492 -72.7017 120° Southeast 212 244 7,400 -700 Descending Miami Center
Thu 04:49:49 PM 22.2206 -72.6489 116° Southeast 207 238 6,700 -550 Descending Miami Center
Thu 04:50:49 PM 22.1961 -72.5958 117° Southeast 202 232 6,300 -400 Descending Miami Center
Thu 04:51:49 PM 22.1717 -72.5450 148° Southeast 197 227 5,900 -400 Descending Miami Center
Thu 04:59:15 PM 21.8257 -72.3109 143° Southeast  Level FlightAware Approximate
Thu 05:00:15 PM 21.7813 -72.2748 143° Southeast  Level Estimated
Thu 05:01:15 PM 21.7369 -72.2387 323° Northwest  Level Estimated
Thu 05:02:15 PM 21.7813 -72.2748 143° Southeast  Level Estimated
Thu 05:03:15 PM 21.7369 -72.2387 323° Northwest  Level Estimated
Thu 05:04:15 PM 21.7813 -72.2748 153° Southeast  Level Estimated
Thu 05:05:15 PM 21.7667 -72.2667 345° North  Level FlightAware Approximate
Thu 05:06:15 PM 21.8205 -72.2819 165° South  Level Estimated
Thu 05:07:15 PM 21.7667 -72.2667 345° North  Level FlightAware Approximate
Thu 05:08:15 PM 21.8205 -72.2819 165° South  Level Estimated
Thu 05:09:15 PM 21.7667 -72.2667 345° North  Level FlightAware Approximate
Thu 05:10:15 PM 21.8205 -72.2819 345° North  Level Estimated

Login

Don't have an account? Register now (free) for customized features, flight alerts, and more!